Durban, South Africa

4:43 AM SAST on September 04, 2015 (GMT +0200)
Brighton Beach, Durban | | Change Station
CLOSE
Current Station
Personal Weather Station
Location: Durban, KWAZULU-NATAL
Elevation: 289 ft
Nearby Weather Stations

Elev 289 ft 29.93 °S, 31.01 °E | Updated 18 seconds ago

Overcast
Overcast
60.1 °F
Feels Like 60.1 °F
N
1.0
Wind Variable Wind from NW
Gusts 2.9 mph

Today
High -- | Low -- °F
--% Chance of Precip.
Yesterday
High -- | Low -- °F
Precip. -- in
6:08 AM 5:42 PM
Waning Gibbous, 64% visible
Pressure 30.51 in
Visibility 6.2 miles
Clouds Few 3000 ft
Mostly Cloudy 4000 ft
Overcast 4900 ft
Dew Point 49 °F
Humidity 66%
Rainfall 0.00 in
Snow Depth Not available.
UV 0 out of 12
Pollen Not available.
Air Quality Not available.
Flu Activity Not available.
METAR FALE 040200Z 33004KT 9999 -RA FEW030 BKN040 OVC049 14/13 Q1033 NOSIG
Pressure 30.51 in
Visibility 6.2 miles
Clouds Few 3000 ft
Mostly Cloudy 4000 ft
Overcast 4900 ft
Dew Point 49 °F
Humidity 66%
Rainfall 0.00 in
Snow Depth Not available.
UV 0 out of 12
Pollen Not available.
Air Quality Not available.
Flu Activity Not available.
METAR FALE 040200Z 33004KT 9999 -RA FEW030 BKN040 OVC049 14/13 Q1033 NOSIG

10-Day Weather Forecast

×

Almanac

Astronomy

Sep. 04, 2015 Rise Set
Actual Time
Civil Twilight
Nautical Twilight
Astronomical Twilight
Moon
Length of Visible Light
Length of Day
Tomorrow will be .
, % of the Moon is Illuminated

Today's Extremes

Country Highs Country Lows

Community

WunderPhotos

Upload Photos

1,852,106 photos uploaded!

WunderBlogs® & News

Nearby

Air Quality

  Air Quality AQ Index Pollutant
Not available.

Snow Depth

Station Depth Elevation

Earthquake Activity

City Distance Mag. Time & Date
Minimum magnitude displayed is 2.5.

Coastal Water Temperatures

Place Temperature

Stations

Nearby Weather Stations

Station Location Temp. Windchill Dew Point Humidity Wind Precip. Elev Updated Type